Time;durP1;ratioP1;P1;durP2;ratioP2;P2;SDS_P1;SDS_P2;PMS_P1;PMS_P2;Temp;Humidity;BMP_temperature;BMP_pressure;BME280_temperature;BME280_humidity;BME280_pressure;Samples;Min_cycle;Max_cycle;Signal;HPM_P1;HPM_P2
2023/09/09 00:04:25;;;;;;;8.73;4.18;;;;;;;24.07;51.72;101546.16;16120058;19;131646;-61
2023/09/09 00:09:47;;;;;;;7.88;3.80;;;;;;;24.07;51.89;101550.91;16118071;19;129993;-61
2023/09/09 00:15:09;;;;;;;7.47;3.72;;;;;;;24.07;51.53;101551.75;16121081;19;132934;-60
2023/09/09 00:20:36;;;;;;;9.00;3.65;;;;;;;24.07;51.73;101551.75;16078530;19;132242;-60
2023/09/09 00:25:58;;;;;;;5.80;3.40;;;;;;;24.06;51.55;101549.22;16117652;19;131517;-60
2023/09/09 00:31:20;;;;;;;5.88;3.60;;;;;;;24.05;51.74;101541.94;16119873;19;130761;-60
2023/09/09 00:36:42;;;;;;;3.90;3.25;;;;;;;24.05;51.30;101539.16;16120805;19;130221;-60
2023/09/09 00:42:04;;;;;;;5.13;3.45;;;;;;;24.05;51.67;101541.94;16118574;19;130933;-60
2023/09/09 00:47:26;;;;;;;4.50;2.92;;;;;;;24.03;51.58;101533.84;16122032;19;130384;-60
2023/09/09 00:52:49;;;;;;;4.28;3.10;;;;;;;24.03;51.79;101533.84;16120776;19;131382;-59
2023/09/09 00:58:11;;;;;;;3.78;2.90;;;;;;;24.02;51.35;101531.28;16121876;19;131326;-60
2023/09/09 01:03:33;;;;;;;5.18;3.00;;;;;;;24.02;51.62;101531.28;16113547;19;130780;-60
2023/09/09 01:08:55;;;;;;;4.75;3.10;;;;;;;24.01;51.44;101524.03;16116050;19;129520;-60
2023/09/09 01:14:17;;;;;;;5.53;3.17;;;;;;;24.00;51.16;101520.41;16114395;19;130464;-60
2023/09/09 01:19:39;;;;;;;4.28;3.10;;;;;;;24.00;51.60;101525.97;16113273;19;131293;-60
2023/09/09 01:25:05;;;;;;;5.75;2.92;;;;;;;24.01;51.49;101529.59;16113594;19;129797;-60
2023/09/09 01:30:27;;;;;;;5.07;2.88;;;;;;;23.99;51.11;101532.69;16116896;19;129888;-60
2023/09/09 01:35:49;;;;;;;4.47;3.20;;;;;;;23.98;51.44;101525.41;16114177;19;129439;-61
2023/09/09 01:41:11;;;;;;;4.10;2.85;;;;;;;23.96;51.45;101528.47;16114568;19;130019;-60
2023/09/09 01:46:33;;;;;;;6.13;3.17;;;;;;;23.96;51.31;101534.06;16118468;19;129673;-60
2023/09/09 01:51:55;;;;;;;3.78;2.58;;;;;;;23.96;51.25;101528.47;16111461;19;131109;-60
2023/09/09 01:57:19;;;;;;;4.18;2.88;;;;;;;23.95;51.53;101535.19;16116083;19;130282;-60
2023/09/09 02:02:41;;;;;;;5.53;2.50;;;;;;;23.94;51.34;101533.50;16111557;19;129723;-60
2023/09/09 02:08:03;;;;;;;3.60;2.55;;;;;;;23.94;51.43;101527.03;16110538;19;129495;-60
2023/09/09 02:13:25;;;;;;;3.05;2.53;;;;;;;23.93;51.07;101529.00;16113647;19;129524;-60
2023/09/09 02:18:48;;;;;;;3.75;2.42;;;;;;;23.92;51.40;101532.91;16116357;19;130548;-60
2023/09/09 02:24:09;;;;;;;3.95;2.58;;;;;;;23.91;51.63;101525.63;16110126;19;129526;-60
2023/09/09 02:29:31;;;;;;;4.93;2.58;;;;;;;23.91;51.55;101519.22;16113969;19;131341;-60
2023/09/09 02:34:53;;;;;;;3.20;2.53;;;;;;;23.92;51.59;101520.91;16105849;19;130299;-60
2023/09/09 02:40:15;;;;;;;4.10;2.33;;;;;;;23.90;51.23;101506.34;16110542;19;130027;-60
2023/09/09 02:45:37;;;;;;;4.53;2.50;;;;;;;23.90;51.36;101512.78;16103839;19;130815;-60
2023/09/09 02:50:59;;;;;;;3.75;2.53;;;;;;;23.89;51.03;101508.28;16109093;19;129670;-59
2023/09/09 02:56:21;;;;;;;3.50;2.70;;;;;;;23.88;51.45;101508.56;16109086;19;133492;-59
2023/09/09 03:01:43;;;;;;;3.13;2.35;;;;;;;23.88;50.99;101514.16;16104780;19;132176;-60
2023/09/09 03:07:05;;;;;;;4.25;2.45;;;;;;;23.88;51.63;101516.97;16104836;19;129463;-60
2023/09/09 03:12:27;;;;;;;2.75;2.38;;;;;;;23.86;51.06;101514.44;16105503;19;130565;-60
2023/09/09 03:17:49;;;;;;;3.35;2.38;;;;;;;23.86;51.21;101506.06;16109558;19;129790;-60
2023/09/09 03:23:12;;;;;;;5.32;2.45;;;;;;;23.85;51.08;101506.31;16112942;19;130516;-60
2023/09/09 03:28:34;;;;;;;2.20;2.00;;;;;;;23.84;50.95;101513.88;16111287;19;130060;-60
2023/09/09 03:33:55;;;;;;;3.83;2.38;;;;;;;23.84;51.50;101513.88;16105714;19;129876;-59
2023/09/09 03:39:17;;;;;;;3.25;2.05;;;;;;;23.82;51.36;101516.91;16105928;19;131290;-61
2023/09/09 03:44:40;;;;;;;2.22;2.03;;;;;;;23.84;51.08;101516.66;16109743;19;129864;-58
2023/09/09 03:50:04;;;;;;;4.57;2.38;;;;;;;23.82;51.14;101516.06;16104050;19;129806;-60
2023/09/09 03:55:26;;;;;;;3.15;2.10;;;;;;;23.82;51.36;101516.06;16115474;19;130748;-60
2023/09/09 04:00:48;;;;;;;2.95;2.10;;;;;;;23.82;50.92;101521.66;16122681;19;129808;-59
2023/09/09 04:06:11;;;;;;;2.28;1.90;;;;;;;23.80;51.07;101515.50;16120321;19;129837;-60
2023/09/09 04:11:33;;;;;;;3.08;2.05;;;;;;;23.80;51.17;101523.88;16122905;19;129906;-60
2023/09/09 04:16:55;;;;;;;2.17;1.92;;;;;;;23.79;51.05;101517.47;16118209;19;129928;-60
2023/09/09 04:22:17;;;;;;;4.18;2.00;;;;;;;23.79;51.18;101522.19;16119665;19;130646;-61
2023/09/09 04:27:39;;;;;;;2.67;2.20;;;;;;;23.78;51.23;101517.72;16119748;19;132385;-59
2023/09/09 04:33:02;;;;;;;2.10;1.90;;;;;;;23.77;50.85;101522.47;16120588;19;131873;-64
2023/09/09 04:38:24;;;;;;;2.92;2.00;;;;;;;23.77;50.93;101524.41;16118727;19;130699;-60
2023/09/09 04:43:46;;;;;;;2.45;2.15;;;;;;;23.76;50.92;101523.56;16115120;19;131180;-60
2023/09/09 04:49:08;;;;;;;2.70;1.73;;;;;;;23.77;51.14;101530.00;16117471;19;129697;-60
2023/09/09 04:54:30;;;;;;;2.90;1.95;;;;;;;23.76;51.04;101543.13;16117489;19;130124;-60
2023/09/09 04:59:52;;;;;;;2.90;1.80;;;;;;;23.75;51.34;101533.06;16116778;19;129452;-60
2023/09/09 05:05:14;;;;;;;2.08;1.88;;;;;;;23.74;50.98;101533.34;16114269;19;131131;-60
2023/09/09 05:10:37;;;;;;;1.83;1.58;;;;;;;23.74;50.75;101541.72;16118420;19;130226;-60
2023/09/09 05:15:59;;;;;;;2.13;1.90;;;;;;;23.73;51.42;101542.84;16105986;19;130798;-59
2023/09/09 05:21:21;;;;;;;2.05;1.85;;;;;;;23.72;51.35;101544.75;16112404;19;129568;-59
2023/09/09 05:26:43;;;;;;;2.17;1.98;;;;;;;23.72;51.17;101543.94;16110158;19;130095;-59
2023/09/09 05:32:05;;;;;;;2.67;2.08;;;;;;;23.71;50.75;101556.22;16119050;19;134860;-59
2023/09/09 05:37:28;;;;;;;1.85;1.60;;;;;;;23.71;50.95;101559.00;16108949;19;131312;-59
2023/09/09 05:42:50;;;;;;;2.28;1.83;;;;;;;23.69;51.10;101555.63;16108472;19;130027;-58
2023/09/09 05:48:12;;;;;;;20.05;17.70;;;;;;;23.66;50.54;101552.25;16105550;19;130924;-59
2023/09/09 05:53:34;;;;;;;32.75;29.23;;;;;;;23.60;49.79;101558.94;16115043;19;129614;-56
2023/09/09 05:58:57;;;;;;;33.80;30.48;;;;;;;23.56;49.94;101563.31;16117659;19;130106;-56
2023/09/09 06:04:19;;;;;;;34.55;31.00;;;;;;;23.54;49.43;101571.09;16112350;19;129572;-55
2023/09/09 06:09:41;;;;;;;34.17;30.73;;;;;;;23.53;49.36;101566.63;16112650;19;129622;-55
2023/09/09 06:15:04;;;;;;;32.70;29.58;;;;;;;23.51;49.17;101571.63;16111898;19;133415;-54
2023/09/09 06:20:26;;;;;;;31.30;28.38;;;;;;;23.51;49.07;101578.06;16111560;19;129762;-50
2023/09/09 06:25:51;;;;;;;32.03;28.77;;;;;;;23.53;49.09;101586.19;16116184;19;130969;-44
2023/09/09 06:31:13;;;;;;;28.73;25.67;;;;;;;23.53;49.16;101585.34;16115395;19;131058;-58
2023/09/09 06:36:35;;;;;;;25.20;22.70;;;;;;;23.52;49.15;101592.88;16106099;19;131470;-56
2023/09/09 06:41:57;;;;;;;25.67;23.15;;;;;;;23.53;49.01;101590.94;16113061;19;130128;-59
2023/09/09 06:47:19;;;;;;;29.83;26.63;;;;;;;23.53;48.65;101591.75;16109968;19;129720;-55
2023/09/09 06:52:41;;;;;;;29.63;26.50;;;;;;;23.54;48.98;101592.63;16111438;19;130974;-56
2023/09/09 06:58:03;;;;;;;28.88;25.55;;;;;;;23.52;49.20;101595.66;16114357;19;132927;-58
2023/09/09 07:03:25;;;;;;;36.50;30.38;;;;;;;23.50;49.60;101598.72;16111456;19;131288;-58
2023/09/09 07:08:48;;;;;;;36.40;29.92;;;;;;;23.49;49.54;101602.63;16108977;19;129329;-57
2023/09/09 07:14:09;;;;;;;50.03;34.83;;;;;;;23.49;49.62;101599.84;16113657;19;131388;-58
2023/09/09 07:19:32;;;;;;;39.95;31.67;;;;;;;23.51;49.95;101600.41;16111113;19;131250;-58
2023/09/09 07:24:54;;;;;;;38.53;28.63;;;;;;;23.57;50.34;101606.06;16106461;19;129786;-57
2023/09/09 07:30:18;;;;;;;37.60;29.10;;;;;;;23.63;50.16;101607.81;16109184;19;131463;-58
2023/09/09 07:35:41;;;;;;;33.83;26.00;;;;;;;23.68;49.90;101609.81;16124786;19;129501;-58
2023/09/09 07:41:03;;;;;;;33.05;25.90;;;;;;;23.71;49.92;101617.69;16125126;19;133277;-58
2023/09/09 07:46:25;;;;;;;34.50;26.10;;;;;;;23.75;50.08;101621.63;16126612;19;130165;-59
2023/09/09 07:51:49;;;;;;;30.35;23.92;;;;;;;23.76;49.78;101612.13;16127866;19;132024;-57
2023/09/09 07:57:11;;;;;;;27.48;22.30;;;;;;;23.78;49.74;101619.16;16127370;19;129411;-59
2023/09/09 08:02:35;;;;;;;30.02;23.00;;;;;;;23.81;50.05;101615.84;16121904;19;131599;-55
2023/09/09 08:07:57;;;;;;;25.23;20.75;;;;;;;23.83;49.82;101626.72;16127814;19;129513;-62
2023/09/09 08:13:19;;;;;;;23.45;18.52;;;;;;;23.85;49.92;101629.25;16125104;19;130551;-58
2023/09/09 08:18:41;;;;;;;22.67;18.10;;;;;;;23.85;50.17;101627.31;16122637;19;129842;-60
2023/09/09 08:24:03;;;;;;;24.35;18.48;;;;;;;23.85;49.62;101621.72;16124409;19;130467;-58
2023/09/09 08:29:25;;;;;;;23.02;18.00;;;;;;;23.87;49.88;101624.25;16123299;19;129459;-60
2023/09/09 08:34:47;;;;;;;20.48;16.50;;;;;;;23.87;50.04;101630.69;16124664;19;130400;-58
2023/09/09 08:40:09;;;;;;;20.02;15.60;;;;;;;23.87;50.03;101636.28;16122082;19;131248;-57
2023/09/09 08:45:46;;;;;;;17.40;14.73;;;;;;;23.90;49.91;101640.50;16121979;19;129713;-59
2023/09/09 08:51:14;;;;;;;16.77;14.40;;;;;;;23.89;49.55;101638.81;16121344;19;130126;-58
2023/09/09 08:56:36;;;;;;;21.77;14.13;;;;;;;23.89;49.85;101644.38;16118050;19;129743;-59
2023/09/09 09:01:58;;;;;;;17.10;13.57;;;;;;;23.89;49.79;101639.63;16120864;19;130741;-58
2023/09/09 09:07:21;;;;;;;15.80;13.10;;;;;;;23.89;49.94;101642.41;16120082;19;129904;-58
2023/09/09 09:12:44;;;;;;;17.02;12.82;;;;;;;23.89;49.88;101648.00;16123239;19;130217;-58
2023/09/09 09:18:08;;;;;;;15.15;12.43;;;;;;;23.91;49.80;101653.34;16118543;19;130369;-59
2023/09/09 09:23:30;;;;;;;14.27;12.32;;;;;;;23.91;49.91;101642.19;16118386;19;129790;-59
2023/09/09 09:28:52;;;;;;;13.65;10.98;;;;;;;23.90;49.96;101652.50;16111605;19;130608;-59
2023/09/09 09:34:16;;;;;;;12.02;10.10;;;;;;;23.92;49.86;101649.44;16113961;19;130166;-59
2023/09/09 09:39:39;;;;;;;11.15;9.73;;;;;;;23.92;49.70;101644.69;16113309;19;131415;-59
2023/09/09 09:45:08;;;;;;;12.27;9.35;;;;;;;23.93;50.05;101646.38;16113215;19;129505;-59
2023/09/09 09:50:30;;;;;;;11.63;9.57;;;;;;;23.93;50.27;101648.34;16113513;19;129944;-59
2023/09/09 09:55:55;;;;;;;10.88;8.80;;;;;;;23.92;50.37;101639.09;16118039;19;129823;-59
2023/09/09 10:01:17;;;;;;;9.60;8.57;;;;;;;23.92;49.95;101643.88;16112107;19;130047;-58
2023/09/09 10:06:41;;;;;;;9.98;7.65;;;;;;;23.92;50.18;101641.91;16113943;19;129882;-59
2023/09/09 10:12:18;;;;;;;10.07;7.68;;;;;;;23.93;50.03;101629.63;16116806;19;129689;-59
2023/09/09 10:17:46;;;;;;;9.25;7.57;;;;;;;23.93;50.04;101635.19;16117868;19;129426;-59
2023/09/09 10:23:09;;;;;;;8.30;6.97;;;;;;;23.94;49.99;101636.03;16117965;19;130617;-59
2023/09/09 10:28:32;;;;;;;8.70;7.10;;;;;;;23.94;49.99;101634.09;16118130;19;131206;-59
2023/09/09 10:33:56;;;;;;;8.75;6.63;;;;;;;23.94;50.16;101627.66;16111399;19;129298;-59
2023/09/09 10:39:22;;;;;;;9.67;6.43;;;;;;;23.96;49.99;101625.44;16114968;19;131097;-59
2023/09/09 10:44:48;;;;;;;7.30;6.45;;;;;;;23.96;49.75;101625.44;16117114;19;129504;-60
2023/09/09 10:50:10;;;;;;;7.20;5.50;;;;;;;23.95;50.17;101630.19;16114998;19;129655;-59
2023/09/09 10:55:32;;;;;;;7.45;6.15;;;;;;;23.96;49.94;101631.88;16113497;19;129248;-59
2023/09/09 11:00:55;;;;;;;5.68;5.10;;;;;;;23.95;49.75;101627.41;16113677;19;129372;-60
2023/09/09 11:06:31;;;;;;;6.45;5.78;;;;;;;23.98;49.89;101631.59;16124480;19;131427;-59
2023/09/09 11:11:55;;;;;;;6.30;5.22;;;;;;;23.95;49.98;101624.59;16153246;19;129521;-60
2023/09/09 11:17:17;;;;;;;6.05;5.05;;;;;;;23.95;50.03;101616.22;16205420;19;128473;-59
2023/09/09 11:22:40;;;;;;;6.03;5.13;;;;;;;23.96;49.74;101620.72;16208686;19;128485;-59
2023/09/09 11:28:03;;;;;;;6.07;5.32;;;;;;;23.96;49.65;101609.53;16208203;19;128390;-60
2023/09/09 11:33:25;;;;;;;5.65;5.13;;;;;;;23.96;49.83;101612.31;16188390;19;130731;-58
2023/09/09 11:38:47;;;;;;;7.18;4.70;;;;;;;23.96;49.68;101601.16;16179948;19;129063;-59
2023/09/09 11:44:09;;;;;;;5.30;4.80;;;;;;;23.99;49.74;101604.53;16145604;19;130015;-60
2023/09/09 11:49:31;;;;;;;5.50;4.72;;;;;;;23.99;49.79;101604.53;16141232;19;129173;-59
2023/09/09 11:54:53;;;;;;;4.90;4.43;;;;;;;24.00;49.78;101600.63;16138087;19;129562;-60
2023/09/09 12:00:21;;;;;;;6.13;4.45;;;;;;;23.99;49.58;101599.75;16140424;19;130168;-60
2023/09/09 12:05:44;;;;;;;5.93;4.68;;;;;;;24.00;49.94;101589.44;16122807;19;131781;-59
2023/09/09 12:11:08;;;;;;;5.97;4.13;;;;;;;24.03;50.07;101591.69;16124397;19;129725;-58
2023/09/09 12:16:32;;;;;;;9.85;4.30;;;;;;;24.10;50.47;101589.50;16118290;19;129643;-56
2023/09/09 12:21:54;;;;;;;8.73;3.60;;;;;;;24.17;50.56;101590.13;16121859;19;130674;-59
2023/09/09 12:27:16;;;;;;;9.25;3.55;;;;;;;24.22;50.55;101590.16;16118578;19;130665;-58
2023/09/09 12:32:37;;;;;;;12.63;4.13;;;;;;;24.24;50.73;101585.19;16121025;19;129786;-57
2023/09/09 12:38:00;;;;;;;8.02;4.22;;;;;;;24.29;50.48;101591.91;16115320;19;130514;-58
2023/09/09 12:43:24;;;;;;;6.45;3.45;;;;;;;24.31;50.49;101584.09;16116254;19;130680;-58
2023/09/09 12:49:02;;;;;;;5.53;3.20;;;;;;;24.33;50.23;101587.47;16115809;19;129917;-59
2023/09/09 12:54:23;;;;;;;9.98;3.70;;;;;;;24.32;50.58;101586.59;16119986;19;131279;-59
2023/09/09 12:59:45;;;;;;;5.93;3.78;;;;;;;24.35;50.61;101586.06;16118846;19;131344;-58
2023/09/09 13:05:09;;;;;;;6.68;3.60;;;;;;;24.35;50.27;101579.66;16118062;19;130351;-59
2023/09/09 13:10:31;;;;;;;6.10;3.65;;;;;;;24.37;50.40;101578.25;16119997;19;131386;-57
2023/09/09 13:15:53;;;;;;;8.13;3.58;;;;;;;24.39;50.68;101575.19;16121163;19;131385;-58
2023/09/09 13:21:15;;;;;;;14.07;3.58;;;;;;;24.43;50.79;101567.94;16119122;19;129460;-58
2023/09/09 13:26:37;;;;;;;5.57;3.42;;;;;;;24.48;50.92;101573.59;16114476;19;129848;-59
2023/09/09 13:31:59;;;;;;;11.30;3.53;;;;;;;24.52;50.91;101569.09;16106110;19;130631;-58
2023/09/09 13:37:21;;;;;;;14.52;3.80;;;;;;;24.57;50.97;101562.69;16120115;19;129509;-59
2023/09/09 13:42:43;;;;;;;10.55;3.65;;;;;;;24.62;51.08;101556.28;16118683;19;130419;-56
2023/09/09 13:48:06;;;;;;;10.05;4.05;;;;;;;24.65;50.79;101553.81;16117938;19;129725;-58
2023/09/09 13:53:27;;;;;;;10.57;3.63;;;;;;;24.68;50.86;101549.59;16118552;19;130886;-55
2023/09/09 13:58:49;;;;;;;11.75;3.47;;;;;;;24.71;50.89;101546.28;16119332;19;129864;-58
2023/09/09 14:04:11;;;;;;;6.93;3.60;;;;;;;24.72;51.12;101554.38;16121318;19;129227;-58
2023/09/09 14:09:33;;;;;;;7.55;3.33;;;;;;;24.74;50.58;101545.69;16117769;19;129865;-58
2023/09/09 14:14:55;;;;;;;11.18;3.55;;;;;;;24.74;50.97;101542.91;16120947;19;129457;-58
2023/09/09 14:20:17;;;;;;;11.52;3.50;;;;;;;24.77;50.53;101549.94;16119467;19;129607;-58
2023/09/09 14:25:43;;;;;;;5.25;3.03;;;;;;;24.77;50.69;101547.97;16118417;19;129046;-59
2023/09/09 14:31:05;;;;;;;5.10;2.92;;;;;;;24.77;50.72;101545.16;16122035;19;130228;-59
2023/09/09 14:36:27;;;;;;;6.30;3.17;;;;;;;24.78;50.66;101540.44;16114664;19;130242;-58
2023/09/09 14:41:49;;;;;;;5.68;3.20;;;;;;;24.78;50.57;101535.66;16115877;19;129655;-58
2023/09/09 14:47:10;;;;;;;7.82;3.60;;;;;;;24.79;50.44;101540.13;16117088;19;129627;-59
2023/09/09 14:52:32;;;;;;;7.68;3.50;;;;;;;24.80;50.46;101541.00;16119053;19;129655;-58
2023/09/09 14:57:54;;;;;;;7.40;3.45;;;;;;;24.81;50.44;101535.13;16096751;19;129465;-59
2023/09/09 15:03:16;;;;;;;8.25;2.97;;;;;;;24.81;50.98;101529.53;16114655;19;130324;-59
2023/09/09 15:08:38;;;;;;;9.48;3.40;;;;;;;24.81;51.14;101523.94;16113237;19;129979;-59
2023/09/09 15:14:01;;;;;;;7.43;3.42;;;;;;;24.81;51.38;101526.72;16113334;19;129648;-58
2023/09/09 15:19:23;;;;;;;15.50;4.13;;;;;;;24.84;51.59;101531.78;16114303;19;130539;-59
2023/09/09 15:24:45;;;;;;;10.20;3.80;;;;;;;24.84;51.65;101525.31;16115080;19;129382;-58
2023/09/09 15:30:07;;;;;;;9.13;3.30;;;;;;;24.84;51.83;101526.19;16114026;19;130760;-58
2023/09/09 15:35:29;;;;;;;13.90;4.00;;;;;;;24.85;51.40;101529.81;16113398;19;130153;-58
2023/09/09 15:40:51;;;;;;;7.28;3.15;;;;;;;24.84;51.37;101525.31;16112426;19;130424;-57
2023/09/09 15:46:15;;;;;;;10.13;3.40;;;;;;;24.84;51.39;101514.13;16109710;19;130505;-59
2023/09/09 15:51:38;;;;;;;7.57;3.38;;;;;;;24.85;51.49;101519.47;16120820;19;130189;-58
2023/09/09 15:57:00;;;;;;;6.35;3.30;;;;;;;24.85;51.55;101516.66;16122313;19;129887;-58
2023/09/09 16:02:22;;;;;;;16.52;3.92;;;;;;;24.86;51.55;101512.72;16123060;19;130769;-60
2023/09/09 16:07:44;;;;;;;18.25;4.07;;;;;;;24.87;51.27;101508.00;16125857;19;129916;-58
2023/09/09 16:13:06;;;;;;;17.60;3.72;;;;;;;24.90;51.74;101513.06;16126528;19;129550;-56
2023/09/09 16:18:34;;;;;;;7.30;3.63;;;;;;;24.90;51.61;101506.63;16120650;19;134299;-58
2023/09/09 16:23:57;;;;;;;18.00;4.53;;;;;;;24.88;51.96;101507.72;16124291;19;129297;-58
2023/09/09 16:29:19;;;;;;;13.15;3.90;;;;;;;24.91;51.99;101508.31;16121304;19;129833;-58
2023/09/09 16:34:41;;;;;;;22.05;4.10;;;;;;;24.90;52.21;101498.22;16118585;19;130419;-59
2023/09/09 16:40:04;;;;;;;14.50;4.35;;;;;;;24.93;52.12;101511.69;16116351;19;130514;-58
2023/09/09 16:45:26;;;;;;;16.50;3.85;;;;;;;24.95;52.53;101509.44;16113195;19;131449;-58
2023/09/09 16:50:49;;;;;;;12.05;3.65;;;;;;;24.95;52.65;101509.44;16119152;19;134438;-57
2023/09/09 16:56:11;;;;;;;18.67;3.97;;;;;;;24.95;52.53;101517.84;16117732;19;130836;-58
2023/09/09 17:01:33;;;;;;;11.57;3.80;;;;;;;24.97;52.68;101521.22;16118012;19;131499;-55
2023/09/09 17:06:55;;;;;;;10.82;4.35;;;;;;;24.97;52.89;101518.41;16118777;19;131370;-51
2023/09/09 17:12:18;;;;;;;17.00;4.55;;;;;;;24.98;53.06;101522.91;16117095;19;129551;-52
2023/09/09 17:17:39;;;;;;;21.63;5.03;;;;;;;24.99;52.81;101530.16;16115039;19;130765;-54
2023/09/09 17:23:02;;;;;;;23.05;4.55;;;;;;;24.99;52.76;101532.94;16116763;19;131011;-56
2023/09/09 17:28:23;;;;;;;20.45;4.53;;;;;;;24.98;53.11;101536.91;16114067;19;130393;-55
2023/09/09 17:33:46;;;;;;;22.05;5.35;;;;;;;24.98;52.85;101534.09;16113004;19;130095;-53
2023/09/09 17:39:10;;;;;;;19.17;4.57;;;;;;;24.97;52.63;101533.25;16115171;19;129710;-56
2023/09/09 17:44:32;;;;;;;21.33;4.57;;;;;;;24.96;52.90;101530.72;16109155;19;130643;-54
2023/09/09 17:49:54;;;;;;;22.38;4.70;;;;;;;24.96;52.99;101539.13;16104949;19;130654;-55
2023/09/09 17:55:17;;;;;;;18.10;4.20;;;;;;;24.96;53.25;101537.16;16116510;19;130149;-54
2023/09/09 18:00:39;;;;;;;22.48;4.38;;;;;;;24.98;52.99;101539.69;16117241;19;129867;-52
2023/09/09 18:06:01;;;;;;;21.17;4.78;;;;;;;24.98;53.26;101531.28;16104704;19;130049;-57
2023/09/09 18:11:24;;;;;;;18.00;4.00;;;;;;;24.99;53.05;101532.94;16105604;19;130376;-53
2023/09/09 18:16:46;;;;;;;13.07;3.83;;;;;;;24.99;53.24;101544.16;16110031;19;129941;-50
2023/09/09 18:22:08;;;;;;;13.35;4.13;;;;;;;24.99;53.21;101533.81;16114191;19;134470;-51
2023/09/09 18:27:30;;;;;;;10.52;3.95;;;;;;;25.01;53.00;101544.72;16105631;19;130191;-55
2023/09/09 18:32:52;;;;;;;13.88;3.58;;;;;;;25.00;53.16;101543.03;16106380;19;131003;-53
2023/09/09 18:38:15;;;;;;;11.32;3.90;;;;;;;24.99;53.13;101556.19;16102515;19;131390;-53
2023/09/09 18:43:37;;;;;;;14.32;3.60;;;;;;;24.98;53.12;101554.50;16093588;19;129928;-53
2023/09/09 18:49:00;;;;;;;11.00;3.70;;;;;;;24.97;52.83;101552.84;16098231;19;131351;-54
2023/09/09 18:54:22;;;;;;;11.95;3.88;;;;;;;24.95;53.16;101555.06;16091423;19;131270;-49
2023/09/09 18:59:45;;;;;;;8.18;3.28;;;;;;;24.96;53.05;101564.31;16108206;19;131171;-60
2023/09/09 19:05:07;;;;;;;10.07;3.80;;;;;;;24.97;53.02;101566.00;16105597;19;130325;-60
2023/09/09 19:10:30;;;;;;;6.47;3.25;;;;;;;24.97;53.05;101563.19;16103782;19;130104;-45
2023/09/09 19:15:52;;;;;;;11.75;3.75;;;;;;;24.97;53.02;101568.78;16104501;19;131698;-47
2023/09/09 19:21:14;;;;;;;8.85;3.63;;;;;;;24.99;53.25;101577.72;16091746;19;131559;-58
2023/09/09 19:26:37;;;;;;;16.35;4.00;;;;;;;25.01;53.46;101583.91;16109003;19;130553;-58
2023/09/09 19:31:58;;;;;;;9.82;4.60;;;;;;;25.02;53.23;101577.19;16115000;19;130437;-53
2023/09/09 19:37:21;;;;;;;12.13;5.15;;;;;;;25.02;52.80;101580.00;16116011;19;132047;-56
2023/09/09 19:42:50;;;;;;;11.32;7.07;;;;;;;25.02;52.51;101591.19;16112494;19;131709;-55
2023/09/09 19:48:13;;;;;;;13.05;6.75;;;;;;;25.03;52.46;101598.47;16118670;19;129842;-53
2023/09/09 19:53:35;;;;;;;19.02;8.50;;;;;;;25.01;52.67;101597.91;16121334;19;131550;-51
2023/09/09 19:58:57;;;;;;;34.40;16.55;;;;;;;25.02;52.85;101599.59;16118485;19;129998;-50
2023/09/09 20:04:19;;;;;;;44.28;27.63;;;;;;;25.02;52.40;101596.78;16117952;19;130460;-55
2023/09/09 20:09:41;;;;;;;32.33;19.63;;;;;;;25.00;52.46;101601.81;16121478;19;131593;-55
2023/09/09 20:15:04;;;;;;;25.42;14.50;;;;;;;24.96;52.15;101598.72;16123219;19;133050;-54
2023/09/09 20:20:25;;;;;;;14.20;9.40;;;;;;;24.93;51.90;101601.25;16117318;19;130747;-54
2023/09/09 20:25:48;;;;;;;17.85;9.63;;;;;;;24.88;52.23;101600.09;16118844;19;130842;-56
2023/09/09 20:31:10;;;;;;;34.08;9.70;;;;;;;24.87;52.43;101603.16;16116707;19;131156;-53
2023/09/09 20:36:32;;;;;;;26.15;8.27;;;;;;;24.84;52.05;101598.94;16110373;19;131565;-55
2023/09/09 20:41:54;;;;;;;13.32;8.07;;;;;;;24.83;52.19;101597.25;16112294;19;132002;-57
2023/09/09 20:47:17;;;;;;;11.95;8.13;;;;;;;24.82;51.88;101600.31;16109878;19;130868;-55
2023/09/09 20:52:39;;;;;;;16.48;7.97;;;;;;;24.80;51.99;101591.38;16111020;19;131305;-58
2023/09/09 20:58:02;;;;;;;17.90;7.57;;;;;;;24.78;52.14;101594.41;16110452;19;131520;-54
2023/09/09 21:03:24;;;;;;;20.73;8.52;;;;;;;24.78;51.81;101608.41;16116386;19;129785;-54
2023/09/09 21:08:46;;;;;;;32.95;9.40;;;;;;;24.74;51.89;101604.47;16114679;19;129493;-52
2023/09/09 21:14:08;;;;;;;29.77;9.82;;;;;;;24.75;52.19;101600.56;16116486;19;129734;-55
2023/09/09 21:19:30;;;;;;;21.38;8.32;;;;;;;24.72;52.13;101590.75;16109938;19;130727;-56
2023/09/09 21:24:52;;;;;;;12.50;8.07;;;;;;;24.72;52.28;101589.94;16114809;19;131322;-55
2023/09/09 21:30:14;;;;;;;15.63;8.13;;;;;;;24.71;52.27;101593.84;16113211;19;130956;-54
2023/09/09 21:35:36;;;;;;;12.60;7.63;;;;;;;24.71;52.05;101593.84;16114347;19;130258;-55
2023/09/09 21:40:58;;;;;;;15.40;7.47;;;;;;;24.70;52.29;101586.56;16115731;19;129855;-54
2023/09/09 21:46:20;;;;;;;13.80;8.23;;;;;;;24.67;52.50;101587.94;16112407;19;131080;-50
2023/09/09 21:51:43;;;;;;;15.60;7.85;;;;;;;24.67;52.21;101581.50;16107208;19;131378;-57
2023/09/09 21:57:06;;;;;;;14.13;7.28;;;;;;;24.66;52.11;101585.41;16112644;19;129477;-59
2023/09/09 22:02:27;;;;;;;12.18;7.85;;;;;;;24.64;52.06;101580.09;16110997;19;131308;-58
2023/09/09 22:07:50;;;;;;;9.10;7.10;;;;;;;24.63;51.95;101581.19;16108304;19;131856;-57
2023/09/09 22:13:12;;;;;;;9.55;7.30;;;;;;;24.62;52.26;101584.25;16113867;19;131108;-56
2023/09/09 22:18:34;;;;;;;12.13;7.68;;;;;;;24.61;52.20;101577.00;16110609;19;129689;-55
2023/09/09 22:23:55;;;;;;;12.45;7.30;;;;;;;24.60;52.09;101580.91;16115042;19;130480;-54
2023/09/09 22:29:17;;;;;;;10.70;6.95;;;;;;;24.57;52.02;101574.75;16113007;19;130756;-56
2023/09/09 22:34:39;;;;;;;13.68;7.97;;;;;;;24.57;52.41;101571.09;16105482;19;130966;-56
2023/09/09 22:40:02;;;;;;;11.90;7.45;;;;;;;24.55;52.12;101562.97;16109338;19;129358;-55
2023/09/09 22:45:23;;;;;;;8.65;7.38;;;;;;;24.54;52.42;101571.66;16108069;19;130295;-56
2023/09/09 22:50:46;;;;;;;9.02;6.95;;;;;;;24.53;52.47;101562.41;16105360;19;129660;-56
2023/09/09 22:56:08;;;;;;;12.40;6.93;;;;;;;24.52;52.17;101569.09;16108804;19;130088;-56
2023/09/09 23:01:30;;;;;;;10.95;7.10;;;;;;;24.51;52.46;101566.59;16107607;19;130834;-55
2023/09/09 23:06:52;;;;;;;10.38;6.72;;;;;;;24.51;52.45;101561.00;16108947;19;129689;-56
2023/09/09 23:12:14;;;;;;;9.25;6.68;;;;;;;24.50;52.01;101568.53;16109702;19;130184;-57
2023/09/09 23:17:36;;;;;;;10.15;6.72;;;;;;;24.48;52.13;101562.41;16108296;19;131211;-57
2023/09/09 23:22:58;;;;;;;11.07;6.63;;;;;;;24.48;52.32;101562.41;16109420;19;129867;-57
2023/09/09 23:28:20;;;;;;;10.48;6.57;;;;;;;24.47;52.30;101559.84;16107234;19;129832;-55
2023/09/09 23:33:42;;;;;;;11.13;7.00;;;;;;;24.46;52.10;101564.63;16106923;19;131547;-57
2023/09/09 23:39:06;;;;;;;8.43;6.85;;;;;;;24.47;52.35;101566.31;16106553;19;130198;-56
2023/09/09 23:44:28;;;;;;;8.43;6.40;;;;;;;24.45;52.02;101565.72;16105741;19;130231;-56
2023/09/09 23:49:50;;;;;;;10.75;6.70;;;;;;;24.45;52.13;101570.47;16099067;19;130495;-57
2023/09/09 23:55:12;;;;;;;9.27;6.22;;;;;;;24.44;52.23;101572.44;16104785;19;131703;-56
